sensor_id;sensor_type;location;lat;lon;timestamp;pressure;altitude;pressure_sealevel;temperature;humidity
68456;BME280;55437;55.046;38.838;2023-03-01T00:02:07;99103.34;;;-1.62;48.63
68456;BME280;55437;55.046;38.838;2023-03-01T00:04:33;99103.34;;;-1.63;48.52
68456;BME280;55437;55.046;38.838;2023-03-01T00:07:01;99102.47;;;-1.67;48.61
68456;BME280;55437;55.046;38.838;2023-03-01T00:09:27;99107.47;;;-1.73;48.74
68456;BME280;55437;55.046;38.838;2023-03-01T00:11:53;99102.38;;;-1.85;48.99
68456;BME280;55437;55.046;38.838;2023-03-01T00:14:19;99095.63;;;-1.89;48.90
68456;BME280;55437;55.046;38.838;2023-03-01T00:16:45;99102.38;;;-1.85;48.75
68456;BME280;55437;55.046;38.838;2023-03-01T00:19:13;99091.50;;;-1.83;48.91
68456;BME280;55437;55.046;38.838;2023-03-01T00:21:40;99096.47;;;-1.89;48.53
68456;BME280;55437;55.046;38.838;2023-03-01T00:24:06;99091.41;;;-1.93;49.05
68456;BME280;55437;55.046;38.838;2023-03-01T00:26:32;99090.56;;;-1.92;49.22
68456;BME280;55437;55.046;38.838;2023-03-01T00:28:59;99088.91;;;-1.95;49.10
68456;BME280;55437;55.046;38.838;2023-03-01T00:31:27;99088.84;;;-2.02;48.77
68456;BME280;55437;55.046;38.838;2023-03-01T00:33:56;99078.78;;;-2.05;48.98
68456;BME280;55437;55.046;38.838;2023-03-01T00:36:24;99076.25;;;-2.07;48.57
68456;BME280;55437;55.046;38.838;2023-03-01T00:38:50;99084.56;;;-2.14;49.15
68456;BME280;55437;55.046;38.838;2023-03-01T00:41:17;99082.88;;;-2.17;48.77
68456;BME280;55437;55.046;38.838;2023-03-01T00:43:44;99079.50;;;-2.23;49.23
68456;BME280;55437;55.046;38.838;2023-03-01T00:46:19;99077.78;;;-2.26;49.16
68456;BME280;55437;55.046;38.838;2023-03-01T00:48:45;99081.19;;;-2.21;49.31
68456;BME280;55437;55.046;38.838;2023-03-01T00:51:20;99083.66;;;-2.27;48.77
68456;BME280;55437;55.046;38.838;2023-03-01T00:53:47;99082.78;;;-2.33;48.77
68456;BME280;55437;55.046;38.838;2023-03-01T00:56:14;99070.25;;;-2.30;48.83
68456;BME280;55437;55.046;38.838;2023-03-01T00:58:40;99070.97;;;-2.40;49.56
68456;BME280;55437;55.046;38.838;2023-03-01T01:01:12;99076.00;;;-2.45;49.16
68456;BME280;55437;55.046;38.838;2023-03-01T01:03:51;99075.94;;;-2.49;49.20
68456;BME280;55437;55.046;38.838;2023-03-01T01:06:22;99081.00;;;-2.45;49.14
68456;BME280;55437;55.046;38.838;2023-03-01T01:08:50;99076.81;;;-2.47;48.91
68456;BME280;55437;55.046;38.838;2023-03-01T01:11:17;99074.25;;;-2.52;49.18
68456;BME280;55437;55.046;38.838;2023-03-01T01:13:45;99072.56;;;-2.55;48.57
68456;BME280;55437;55.046;38.838;2023-03-01T01:16:12;99074.25;;;-2.55;48.88
68456;BME280;55437;55.046;38.838;2023-03-01T01:18:38;99066.63;;;-2.61;48.93
68456;BME280;55437;55.046;38.838;2023-03-01T01:21:12;99070.78;;;-2.65;48.63
68456;BME280;55437;55.046;38.838;2023-03-01T01:23:39;99065.75;;;-2.69;48.86
68456;BME280;55437;55.046;38.838;2023-03-01T01:26:18;99066.59;;;-2.69;48.68
68456;BME280;55437;55.046;38.838;2023-03-01T01:28:45;99073.19;;;-2.77;48.85
68456;BME280;55437;55.046;38.838;2023-03-01T01:31:12;99064.84;;;-2.74;49.06
68456;BME280;55437;55.046;38.838;2023-03-01T01:33:38;99073.22;;;-2.78;49.05
68456;BME280;55437;55.046;38.838;2023-03-01T01:36:05;99068.94;;;-2.85;49.02
68456;BME280;55437;55.046;38.838;2023-03-01T01:38:31;99079.84;;;-2.83;48.73
68456;BME280;55437;55.046;38.838;2023-03-01T01:40:57;99079.03;;;-2.82;48.40
68456;BME280;55437;55.046;38.838;2023-03-01T01:43:30;99079.81;;;-2.86;48.98
68456;BME280;55437;55.046;38.838;2023-03-01T01:46:28;99082.31;;;-2.88;48.63
68456;BME280;55437;55.046;38.838;2023-03-01T01:49:07;99079.81;;;-2.86;48.69
68456;BME280;55437;55.046;38.838;2023-03-01T01:51:40;99071.44;;;-2.85;48.58
68456;BME280;55437;55.046;38.838;2023-03-01T01:54:14;99074.78;;;-2.86;48.45
68456;BME280;55437;55.046;38.838;2023-03-01T01:56:45;99073.94;;;-2.87;48.33
68456;BME280;55437;55.046;38.838;2023-03-01T01:59:14;99080.59;;;-2.94;48.25
68456;BME280;55437;55.046;38.838;2023-03-01T02:01:40;99075.47;;;-3.01;48.76
68456;BME280;55437;55.046;38.838;2023-03-01T02:04:07;99078.84;;;-3.02;48.54
68456;BME280;55437;55.046;38.838;2023-03-01T02:06:39;99077.91;;;-3.09;48.74
68456;BME280;55437;55.046;38.838;2023-03-01T02:09:11;99075.41;;;-3.09;48.96
68456;BME280;55437;55.046;38.838;2023-03-01T02:11:38;99069.56;;;-3.08;49.45
68456;BME280;55437;55.046;38.838;2023-03-01T02:14:04;99074.63;;;-3.03;48.84
68456;BME280;55437;55.046;38.838;2023-03-01T02:16:31;99071.28;;;-3.01;48.71
68456;BME280;55437;55.046;38.838;2023-03-01T02:18:58;99067.94;;;-3.03;48.54
68456;BME280;55437;55.046;38.838;2023-03-01T02:21:31;99071.25;;;-3.05;48.75
68456;BME280;55437;55.046;38.838;2023-03-01T02:24:27;99072.06;;;-3.08;48.66
68456;BME280;55437;55.046;38.838;2023-03-01T02:26:55;99070.34;;;-3.15;48.96
68456;BME280;55437;55.046;38.838;2023-03-01T02:29:25;99070.34;;;-3.15;49.29
68456;BME280;55437;55.046;38.838;2023-03-01T02:31:52;99066.94;;;-3.20;49.03
68456;BME280;55437;55.046;38.838;2023-03-01T02:34:23;99067.69;;;-3.26;48.82
68456;BME280;55437;55.046;38.838;2023-03-01T02:37:01;99066.88;;;-3.23;48.82
68456;BME280;55437;55.046;38.838;2023-03-01T02:39:37;99072.75;;;-3.22;48.57
68456;BME280;55437;55.046;38.838;2023-03-01T02:42:11;99066.88;;;-3.24;48.45
68456;BME280;55437;55.046;38.838;2023-03-01T02:44:37;99071.03;;;-3.28;48.56
68456;BME280;55437;55.046;38.838;2023-03-01T02:47:04;99070.91;;;-3.39;49.14
68456;BME280;55437;55.046;38.838;2023-03-01T02:49:34;99076.72;;;-3.43;49.19
68456;BME280;55437;55.046;38.838;2023-03-01T02:54:51;99073.47;;;-3.33;48.93
68456;BME280;55437;55.046;38.838;2023-03-01T02:57:21;99074.31;;;-3.34;49.12
68456;BME280;55437;55.046;38.838;2023-03-01T02:59:49;99075.13;;;-3.35;49.08
68456;BME280;55437;55.046;38.838;2023-03-01T03:02:21;99073.44;;;-3.36;49.08
68456;BME280;55437;55.046;38.838;2023-03-01T03:05:10;99080.16;;;-3.33;49.41
68456;BME280;55437;55.046;38.838;2023-03-01T03:07:42;99082.59;;;-3.41;49.30
68456;BME280;55437;55.046;38.838;2023-03-01T03:10:13;99082.53;;;-3.45;49.31
68456;BME280;55437;55.046;38.838;2023-03-01T03:12:40;99085.03;;;-3.45;49.52
68456;BME280;55437;55.046;38.838;2023-03-01T03:15:08;99079.22;;;-3.44;48.90
68456;BME280;55437;55.046;38.838;2023-03-01T03:17:40;99079.16;;;-3.47;49.38
68456;BME280;55437;55.046;38.838;2023-03-01T03:20:09;99080.81;;;-3.49;49.06
68456;BME280;55437;55.046;38.838;2023-03-01T03:22:56;99078.28;;;-3.49;49.32
68456;BME280;55437;55.046;38.838;2023-03-01T03:25:24;99072.41;;;-3.53;49.34
68456;BME280;55437;55.046;38.838;2023-03-01T03:27:51;99063.22;;;-3.54;49.45
68456;BME280;55437;55.046;38.838;2023-03-01T03:30:29;99064.91;;;-3.53;49.62
68456;BME280;55437;55.046;38.838;2023-03-01T03:32:57;99063.22;;;-3.54;49.38
68456;BME280;55437;55.046;38.838;2023-03-01T03:35:29;99069.97;;;-3.47;49.30
68456;BME280;55437;55.046;38.838;2023-03-01T03:38:00;99068.31;;;-3.46;49.66
68456;BME280;55437;55.046;38.838;2023-03-01T03:40:37;99070.75;;;-3.49;49.80
68456;BME280;55437;55.046;38.838;2023-03-01T03:43:04;99082.47;;;-3.53;49.41
68456;BME280;55437;55.046;38.838;2023-03-01T03:45:30;99079.97;;;-3.50;49.62
68456;BME280;55437;55.046;38.838;2023-03-01T03:47:59;99079.16;;;-3.50;49.01
68456;BME280;55437;55.046;38.838;2023-03-01T03:50:27;99084.97;;;-3.53;49.36
68456;BME280;55437;55.046;38.838;2023-03-01T03:52:53;99082.44;;;-3.54;49.71
68456;BME280;55437;55.046;38.838;2023-03-01T03:55:19;99085.00;;;-3.48;49.68
68456;BME280;55437;55.046;38.838;2023-03-01T03:57:47;99081.66;;;-3.47;49.54
68456;BME280;55437;55.046;38.838;2023-03-01T04:00:19;99085.81;;;-3.52;49.82
68456;BME280;55437;55.046;38.838;2023-03-01T04:02:46;99072.28;;;-3.64;49.87
68456;BME280;55437;55.046;38.838;2023-03-01T04:05:15;99079.00;;;-3.63;50.14
68456;BME280;55437;55.046;38.838;2023-03-01T04:07:43;99084.00;;;-3.61;50.01
68456;BME280;55437;55.046;38.838;2023-03-01T04:10:12;99082.31;;;-3.64;49.79
68456;BME280;55437;55.046;38.838;2023-03-01T04:12:38;99089.91;;;-3.59;49.96
68456;BME280;55437;55.046;38.838;2023-03-01T04:15:06;99079.03;;;-3.58;50.04
68456;BME280;55437;55.046;38.838;2023-03-01T04:17:43;99094.00;;;-3.66;50.11
68456;BME280;55437;55.046;38.838;2023-03-01T04:20:12;99090.59;;;-3.71;50.12
68456;BME280;55437;55.046;38.838;2023-03-01T04:22:39;99093.91;;;-3.75;50.38
68456;BME280;55437;55.046;38.838;2023-03-01T04:25:06;99100.59;;;-3.72;50.42
68456;BME280;55437;55.046;38.838;2023-03-01T04:27:33;99094.00;;;-3.66;50.39
68456;BME280;55437;55.046;38.838;2023-03-01T04:30:00;99098.13;;;-3.69;50.43
68456;BME280;55437;55.046;38.838;2023-03-01T04:32:26;99088.88;;;-3.75;50.50
68456;BME280;55437;55.046;38.838;2023-03-01T04:34:52;99098.19;;;-3.66;50.49
68456;BME280;55437;55.046;38.838;2023-03-01T04:37:18;99104.91;;;-3.60;50.11
68456;BME280;55437;55.046;38.838;2023-03-01T04:39:43;99104.97;;;-3.57;50.19
68456;BME280;55437;55.046;38.838;2023-03-01T04:42:13;99101.94;;;-3.32;50.13
68456;BME280;55437;55.046;38.838;2023-03-01T04:44:39;99108.25;;;-2.89;49.67
68456;BME280;55437;55.046;38.838;2023-03-01T04:47:04;99109.41;;;-2.55;48.83
68456;BME280;55437;55.046;38.838;2023-03-01T04:49:30;99113.88;;;-2.22;48.44
68456;BME280;55437;55.046;38.838;2023-03-01T04:51:56;99107.41;;;-1.85;47.90
68456;BME280;55437;55.046;38.838;2023-03-01T04:54:29;99118.47;;;-1.57;47.30
68456;BME280;55437;55.046;38.838;2023-03-01T04:56:55;99116.94;;;-1.16;46.85
68456;BME280;55437;55.046;38.838;2023-03-01T04:59:21;99122.84;;;-1.14;46.50
68456;BME280;55437;55.046;38.838;2023-03-01T05:01:50;99125.31;;;-1.27;46.53
68456;BME280;55437;55.046;38.838;2023-03-01T05:04:17;99127.00;;;-1.19;46.41
68456;BME280;55437;55.046;38.838;2023-03-01T05:06:43;99124.56;;;-0.96;46.28
68456;BME280;55437;55.046;38.838;2023-03-01T05:09:10;99129.66;;;-0.67;45.74
68456;BME280;55437;55.046;38.838;2023-03-01T05:11:37;99122.13;;;-0.21;45.11
68456;BME280;55437;55.046;38.838;2023-03-01T05:14:06;99121.22;;;0.30;44.53
68456;BME280;55437;55.046;38.838;2023-03-01T05:16:33;99126.22;;;0.59;43.68
68456;BME280;55437;55.046;38.838;2023-03-01T05:18:59;99127.81;;;0.75;43.39
68456;BME280;55437;55.046;38.838;2023-03-01T05:21:26;99129.50;;;0.76;43.49
68456;BME280;55437;55.046;38.838;2023-03-01T05:23:51;99133.53;;;1.09;42.99
68456;BME280;55437;55.046;38.838;2023-03-01T05:26:19;99132.56;;;1.34;42.72
68456;BME280;55437;55.046;38.838;2023-03-01T05:28:48;99136.59;;;1.63;41.80
68456;BME280;55437;55.046;38.838;2023-03-01T05:31:15;99141.56;;;1.75;41.94
68456;BME280;55437;55.046;38.838;2023-03-01T05:33:41;99141.56;;;1.75;41.53
68456;BME280;55437;55.046;38.838;2023-03-01T05:36:08;99136.41;;;1.86;41.64
68456;BME280;55437;55.046;38.838;2023-03-01T05:38:35;99133.63;;;2.14;40.90
68456;BME280;55437;55.046;38.838;2023-03-01T05:41:01;99144.28;;;2.45;40.51
68456;BME280;55437;55.046;38.838;2023-03-01T05:43:30;99147.75;;;2.40;39.97
68456;BME280;55437;55.046;38.838;2023-03-01T05:45:59;99142.09;;;2.13;40.24
68456;BME280;55437;55.046;38.838;2023-03-01T05:48:25;99143.97;;;1.90;40.63
68456;BME280;55437;55.046;38.838;2023-03-01T05:50:51;99157.47;;;1.91;40.70
68456;BME280;55437;55.046;38.838;2023-03-01T05:53:19;99159.22;;;1.83;40.74
68456;BME280;55437;55.046;38.838;2023-03-01T05:55:48;99166.03;;;1.74;40.61
68456;BME280;55437;55.046;38.838;2023-03-01T05:58:17;99160.19;;;1.65;40.56
68456;BME280;55437;55.046;38.838;2023-03-01T06:00:45;99165.34;;;1.56;40.81
68456;BME280;55437;55.046;38.838;2023-03-01T06:03:13;99158.66;;;1.44;40.70
68456;BME280;55437;55.046;38.838;2023-03-01T06:05:41;99166.34;;;1.24;41.28
68456;BME280;55437;55.046;38.838;2023-03-01T06:08:09;99167.19;;;1.28;41.01
68456;BME280;55437;55.046;38.838;2023-03-01T06:10:43;99167.91;;;1.47;41.39
68456;BME280;55437;55.046;38.838;2023-03-01T06:13:09;99163.66;;;1.56;40.77
68456;BME280;55437;55.046;38.838;2023-03-01T06:15:35;99162.72;;;1.65;40.80
68456;BME280;55437;55.046;38.838;2023-03-01T06:18:00;99166.88;;;1.76;40.67
68456;BME280;55437;55.046;38.838;2023-03-01T06:20:27;99166.88;;;1.72;41.06
68456;BME280;55437;55.046;38.838;2023-03-01T06:22:53;99168.72;;;1.55;40.90
68456;BME280;55437;55.046;38.838;2023-03-01T06:25:22;99162.88;;;1.40;41.08
68456;BME280;55437;55.046;38.838;2023-03-01T06:27:48;99176.22;;;1.64;40.76
68456;BME280;55437;55.046;38.838;2023-03-01T06:30:15;99176.78;;;2.01;40.55
68456;BME280;55437;55.046;38.838;2023-03-01T06:32:42;99179.84;;;2.36;40.32
68456;BME280;55437;55.046;38.838;2023-03-01T06:35:13;99183.22;;;2.38;39.82
68456;BME280;55437;55.046;38.838;2023-03-01T06:37:40;99184.91;;;2.39;39.67
68456;BME280;55437;55.046;38.838;2023-03-01T06:40:09;99186.66;;;2.30;39.87
68456;BME280;55437;55.046;38.838;2023-03-01T06:42:40;99193.41;;;2.32;39.63
68456;BME280;55437;55.046;38.838;2023-03-01T06:45:07;99186.66;;;2.30;39.29
68456;BME280;55437;55.046;38.838;2023-03-01T06:47:34;99189.16;;;2.33;39.58
68456;BME280;55437;55.046;38.838;2023-03-01T06:50:01;99189.97;;;2.41;39.29
68456;BME280;55437;55.046;38.838;2023-03-01T06:52:29;99203.59;;;2.26;39.76
68456;BME280;55437;55.046;38.838;2023-03-01T06:54:54;99196.38;;;1.79;39.97
68456;BME280;55437;55.046;38.838;2023-03-01T06:57:20;99200.38;;;2.06;40.21
68456;BME280;55437;55.046;38.838;2023-03-01T06:59:47;99199.03;;;2.60;39.39
68456;BME280;55437;55.046;38.838;2023-03-01T07:02:32;99199.59;;;2.88;39.01
68456;BME280;55437;55.046;38.838;2023-03-01T07:04:57;99206.56;;;3.38;38.59
68456;BME280;55437;55.046;38.838;2023-03-01T07:07:23;99202.78;;;3.68;37.79
68456;BME280;55437;55.046;38.838;2023-03-01T07:09:50;99202.91;;;4.16;37.36
68456;BME280;55437;55.046;38.838;2023-03-01T07:12:16;99203.94;;;4.99;36.75
68456;BME280;55437;55.046;38.838;2023-03-01T07:14:43;99212.06;;;5.57;35.92
68456;BME280;55437;55.046;38.838;2023-03-01T07:17:09;99207.66;;;6.03;35.19
68456;BME280;55437;55.046;38.838;2023-03-01T07:19:55;99209.94;;;6.14;34.69
68456;BME280;55437;55.046;38.838;2023-03-01T07:22:21;99211.81;;;6.06;34.38
68456;BME280;55437;55.046;38.838;2023-03-01T07:24:47;99214.34;;;6.41;34.41
68456;BME280;55437;55.046;38.838;2023-03-01T07:27:12;99215.50;;;6.64;33.39
68456;BME280;55437;55.046;38.838;2023-03-01T07:29:39;99215.66;;;6.88;33.36
68456;BME280;55437;55.046;38.838;2023-03-01T07:32:05;99209.81;;;7.16;32.89
68456;BME280;55437;55.046;38.838;2023-03-01T07:34:31;99210.78;;;7.41;32.50
68456;BME280;55437;55.046;38.838;2023-03-01T07:37:16;99217.19;;;7.54;31.96
68456;BME280;55437;55.046;38.838;2023-03-01T07:39:42;99215.56;;;7.52;32.10
68456;BME280;55437;55.046;38.838;2023-03-01T07:42:08;99225.31;;;7.39;32.07
68456;BME280;55437;55.046;38.838;2023-03-01T07:44:34;99223.31;;;7.19;32.43
68456;BME280;55437;55.046;38.838;2023-03-01T07:47:00;99216.16;;;7.32;31.79
68456;BME280;55437;55.046;38.838;2023-03-01T07:49:26;99223.38;;;7.75;31.39
68456;BME280;55437;55.046;38.838;2023-03-01T07:51:52;99222.22;;;7.85;31.17
68456;BME280;55437;55.046;38.838;2023-03-01T07:54:21;99230.69;;;7.87;31.09
68456;BME280;55437;55.046;38.838;2023-03-01T07:56:47;99230.25;;;7.73;31.23
68456;BME280;55437;55.046;38.838;2023-03-01T07:59:13;99233.41;;;7.53;31.26
68456;BME280;55437;55.046;38.838;2023-03-01T08:01:39;99233.16;;;7.33;31.35
68456;BME280;55437;55.046;38.838;2023-03-01T08:04:05;99232.25;;;7.36;31.27
68456;BME280;55437;55.046;38.838;2023-03-01T08:06:34;99232.75;;;7.47;31.27
68456;BME280;55437;55.046;38.838;2023-03-01T08:09:00;99235.47;;;7.41;31.08
68456;BME280;55437;55.046;38.838;2023-03-01T08:11:27;99229.94;;;7.56;30.92
68456;BME280;55437;55.046;38.838;2023-03-01T08:13:56;99229.00;;;7.00;31.41
68456;BME280;55437;55.046;38.838;2023-03-01T08:16:22;99233.91;;;7.06;31.30
68456;BME280;55437;55.046;38.838;2023-03-01T08:18:48;99237.22;;;7.09;31.62
68456;BME280;55437;55.046;38.838;2023-03-01T08:21:17;99233.41;;;6.93;31.67
68456;BME280;55437;55.046;38.838;2023-03-01T08:23:43;99251.47;;;6.18;32.23
68456;BME280;55437;55.046;38.838;2023-03-01T08:26:12;99243.00;;;5.38;32.96
68456;BME280;55437;55.046;38.838;2023-03-01T08:28:40;99254.56;;;4.67;33.76
68456;BME280;55437;55.046;38.838;2023-03-01T08:31:17;99257.56;;;4.40;34.25
68456;BME280;55437;55.046;38.838;2023-03-01T08:33:44;99263.25;;;4.00;34.81
68456;BME280;55437;55.046;38.838;2023-03-01T08:36:17;99266.22;;;3.70;35.06
68456;BME280;55437;55.046;38.838;2023-03-01T08:38:43;99253.66;;;3.60;35.41
68456;BME280;55437;55.046;38.838;2023-03-01T08:41:09;99254.38;;;3.70;35.40
68456;BME280;55437;55.046;38.838;2023-03-01T08:43:35;99267.97;;;3.65;35.53
68456;BME280;55437;55.046;38.838;2023-03-01T08:46:01;99265.88;;;3.31;36.35
68456;BME280;55437;55.046;38.838;2023-03-01T08:48:28;99260.00;;;3.26;36.20
68456;BME280;55437;55.046;38.838;2023-03-01T08:50:55;99261.78;;;3.21;36.65
68456;BME280;55437;55.046;38.838;2023-03-01T08:53:48;99263.44;;;3.25;37.10
68456;BME280;55437;55.046;38.838;2023-03-01T08:56:15;99272.88;;;3.11;37.06
68456;BME280;55437;55.046;38.838;2023-03-01T08:58:44;99264.41;;;3.12;36.94
68456;BME280;55437;55.046;38.838;2023-03-01T09:01:13;99263.59;;;3.10;37.25
68456;BME280;55437;55.046;38.838;2023-03-01T09:03:39;99264.50;;;3.03;37.86
68456;BME280;55437;55.046;38.838;2023-03-01T09:06:06;99261.78;;;3.18;37.96
68456;BME280;55437;55.046;38.838;2023-03-01T09:08:35;99267.56;;;3.31;37.61
68456;BME280;55437;55.046;38.838;2023-03-01T09:11:03;99268.38;;;3.34;37.52
68456;BME280;55437;55.046;38.838;2023-03-01T09:13:29;99269.66;;;2.95;38.48
68456;BME280;55437;55.046;38.838;2023-03-01T09:15:57;99273.03;;;2.94;38.53
68456;BME280;55437;55.046;38.838;2023-03-01T09:18:26;99271.34;;;2.96;38.61
68456;BME280;55437;55.046;38.838;2023-03-01T09:20:51;99269.91;;;2.69;38.89
68456;BME280;55437;55.046;38.838;2023-03-01T09:23:21;99271.00;;;2.42;38.77
68456;BME280;55437;55.046;38.838;2023-03-01T09:25:47;99277.09;;;2.18;39.70
68456;BME280;55437;55.046;38.838;2023-03-01T09:28:12;99267.88;;;2.08;39.57
68456;BME280;55437;55.046;38.838;2023-03-01T09:30:38;99264.47;;;2.12;39.65
68456;BME280;55437;55.046;38.838;2023-03-01T09:33:05;99267.69;;;2.33;39.76
68456;BME280;55437;55.046;38.838;2023-03-01T09:35:31;99271.97;;;2.29;39.86
68456;BME280;55437;55.046;38.838;2023-03-01T09:37:57;99272.00;;;2.22;40.08
68456;BME280;55437;55.046;38.838;2023-03-01T09:40:48;99276.41;;;1.97;40.04
68456;BME280;55437;55.046;38.838;2023-03-01T09:43:45;99278.13;;;1.92;40.45
68456;BME280;55437;55.046;38.838;2023-03-01T09:46:14;99282.44;;;1.71;40.78
68456;BME280;55437;55.046;38.838;2023-03-01T09:48:51;99279.19;;;1.54;40.81
68456;BME280;55437;55.046;38.838;2023-03-01T09:51:22;99285.03;;;1.65;41.03
68456;BME280;55437;55.046;38.838;2023-03-01T09:53:50;99268.94;;;1.77;41.01
68456;BME280;55437;55.046;38.838;2023-03-01T09:59:19;99281.59;;;1.71;40.95
68456;BME280;55437;55.046;38.838;2023-03-01T10:04:41;99280.03;;;1.56;41.10
68456;BME280;55437;55.046;38.838;2023-03-01T10:07:30;99269.91;;;1.49;40.96
68456;BME280;55437;55.046;38.838;2023-03-01T10:09:59;99275.91;;;1.32;41.32
68456;BME280;55437;55.046;38.838;2023-03-01T10:12:37;99281.78;;;1.39;41.55
68456;BME280;55437;55.046;38.838;2023-03-01T10:15:14;99275.88;;;1.41;41.63
68456;BME280;55437;55.046;38.838;2023-03-01T10:17:57;99270.75;;;1.46;41.26
68456;BME280;55437;55.046;38.838;2023-03-01T10:20:41;99273.34;;;1.34;41.68
68456;BME280;55437;55.046;38.838;2023-03-01T10:23:08;99273.34;;;1.41;41.44
68456;BME280;55437;55.046;38.838;2023-03-01T10:28:20;99273.38;;;1.31;42.20
68456;BME280;55437;55.046;38.838;2023-03-01T10:30:50;99264.97;;;1.26;42.22
68456;BME280;55437;55.046;38.838;2023-03-01T10:35:44;99278.41;;;1.35;42.21
68456;BME280;55437;55.046;38.838;2023-03-01T10:38:15;99279.25;;;1.37;42.27
68456;BME280;55437;55.046;38.838;2023-03-01T10:43:27;99277.56;;;1.41;41.99
68456;BME280;55437;55.046;38.838;2023-03-01T10:45:58;99280.94;;;1.38;42.17
68456;BME280;55437;55.046;38.838;2023-03-01T10:48:26;99280.13;;;1.30;42.50
68456;BME280;55437;55.046;38.838;2023-03-01T10:55:59;99281.72;;;1.51;42.54
68456;BME280;55437;55.046;38.838;2023-03-01T10:58:28;99285.91;;;1.57;42.23
68456;BME280;55437;55.046;38.838;2023-03-01T11:01:03;99277.44;;;1.58;42.55
68456;BME280;55437;55.046;38.838;2023-03-01T11:03:37;99278.34;;;1.51;42.67
68456;BME280;55437;55.046;38.838;2023-03-01T11:08:43;99278.41;;;1.40;42.47
68456;BME280;55437;55.046;38.838;2023-03-01T11:11:33;99288.41;;;1.61;42.54
68456;BME280;55437;55.046;38.838;2023-03-01T11:14:06;99279.06;;;1.74;42.58
68456;BME280;55437;55.046;38.838;2023-03-01T11:16:36;99275.69;;;1.75;42.46
68456;BME280;55437;55.046;38.838;2023-03-01T11:21:36;99280.75;;;1.72;42.36
68456;BME280;55437;55.046;38.838;2023-03-01T11:24:09;99274.00;;;1.77;42.25
68456;BME280;55437;55.046;38.838;2023-03-01T11:26:39;99289.97;;;1.87;41.97
68456;BME280;55437;55.046;38.838;2023-03-01T11:29:16;99289.09;;;1.92;42.41
68456;BME280;55437;55.046;38.838;2023-03-01T11:31:44;99277.25;;;1.94;42.08
68456;BME280;55437;55.046;38.838;2023-03-01T11:34:14;99290.81;;;1.84;42.21
68456;BME280;55437;55.046;38.838;2023-03-01T11:36:48;99285.53;;;2.17;41.73
68456;BME280;55437;55.046;38.838;2023-03-01T11:39:18;99292.06;;;2.49;41.51
68456;BME280;55437;55.046;38.838;2023-03-01T11:42:19;99284.19;;;2.79;40.56
68456;BME280;55437;55.046;38.838;2023-03-01T11:44:54;99298.47;;;2.88;40.60
68456;BME280;55437;55.046;38.838;2023-03-01T11:47:42;99305.19;;;2.90;40.35
68456;BME280;55437;55.046;38.838;2023-03-01T11:50:39;99309.47;;;2.88;40.11
68456;BME280;55437;55.046;38.838;2023-03-01T11:53:17;99306.34;;;2.59;39.86
68456;BME280;55437;55.046;38.838;2023-03-01T12:07:16;99319.06;;;2.53;39.25
68456;BME280;55437;55.046;38.838;2023-03-01T12:09:58;99324.16;;;2.50;39.12
68456;BME280;55437;55.046;38.838;2023-03-01T12:28:55;99306.91;;;1.72;40.19
68456;BME280;55437;55.046;38.838;2023-03-01T12:31:32;99306.16;;;1.54;40.35
68456;BME280;55437;55.046;38.838;2023-03-01T12:42:16;99318.94;;;1.14;41.30
68456;BME280;55437;55.046;38.838;2023-03-01T12:50:21;99331.56;;;1.19;41.11
68456;BME280;55437;55.046;38.838;2023-03-01T12:52:55;99329.81;;;1.34;40.90
68456;BME280;55437;55.046;38.838;2023-03-01T12:55:39;99333.16;;;1.55;40.48
68456;BME280;55437;55.046;38.838;2023-03-01T13:07:00;99338.22;;;1.56;40.85
68456;BME280;55437;55.046;38.838;2023-03-01T13:15:36;99337.28;;;1.71;41.12
68456;BME280;55437;55.046;38.838;2023-03-01T13:23:35;99338.13;;;1.71;41.43
68456;BME280;55437;55.046;38.838;2023-03-01T13:26:17;99340.66;;;1.74;41.26
68456;BME280;55437;55.046;38.838;2023-03-01T13:36:07;99351.59;;;1.78;41.33
68456;BME280;55437;55.046;38.838;2023-03-01T13:38:47;99345.75;;;1.64;41.54
68456;BME280;55437;55.046;38.838;2023-03-01T13:41:16;99347.44;;;1.62;41.37
68456;BME280;55437;55.046;38.838;2023-03-01T13:43:44;99350.81;;;1.62;41.39
68456;BME280;55437;55.046;38.838;2023-03-01T13:46:20;99358.41;;;1.59;41.83
68456;BME280;55437;55.046;38.838;2023-03-01T13:48:50;99346.66;;;1.54;41.91
68456;BME280;55437;55.046;38.838;2023-03-01T13:51:23;99347.50;;;1.45;41.87
68456;BME280;55437;55.046;38.838;2023-03-01T13:53:51;99344.16;;;1.40;41.95
68456;BME280;55437;55.046;38.838;2023-03-01T13:56:24;99337.41;;;1.36;41.95
68456;BME280;55437;55.046;38.838;2023-03-01T13:59:21;99339.13;;;1.23;42.05
68456;BME280;55437;55.046;38.838;2023-03-01T14:01:55;99339.97;;;1.28;42.11
68456;BME280;55437;55.046;38.838;2023-03-01T14:04:27;99341.69;;;1.14;42.12
68456;BME280;55437;55.046;38.838;2023-03-01T14:07:16;99332.41;;;1.12;42.15
68456;BME280;55437;55.046;38.838;2023-03-01T14:09:45;99331.59;;;1.00;42.17
68456;BME280;55437;55.046;38.838;2023-03-01T14:15:22;99335.81;;;1.03;42.13
68456;BME280;55437;55.046;38.838;2023-03-01T14:18:04;99335.00;;;0.92;42.38
68456;BME280;55437;55.046;38.838;2023-03-01T14:20:39;99333.31;;;0.91;42.54
68456;BME280;55437;55.046;38.838;2023-03-01T14:23:13;99334.16;;;0.90;42.67
68456;BME280;55437;55.046;38.838;2023-03-01T14:25:47;99330.78;;;0.85;42.72
68456;BME280;55437;55.046;38.838;2023-03-01T14:28:41;99322.34;;;0.92;42.48
68456;BME280;55437;55.046;38.838;2023-03-01T14:31:43;99324.88;;;0.87;42.85
68456;BME280;55437;55.046;38.838;2023-03-01T14:34:22;99318.16;;;0.83;42.80
68456;BME280;55437;55.046;38.838;2023-03-01T14:36:49;99320.66;;;0.85;43.17
68456;BME280;55437;55.046;38.838;2023-03-01T14:39:25;99325.69;;;0.98;43.07
68456;BME280;55437;55.046;38.838;2023-03-01T14:41:52;99319.81;;;1.04;43.24
68456;BME280;55437;55.046;38.838;2023-03-01T14:44:22;99315.59;;;1.03;43.36
68456;BME280;55437;55.046;38.838;2023-03-01T14:46:55;99314.75;;;1.07;43.17
68456;BME280;55437;55.046;38.838;2023-03-01T14:49:30;99310.50;;;1.12;43.20
68456;BME280;55437;55.046;38.838;2023-03-01T14:52:02;99318.09;;;1.11;43.35